Time;durP1;ratioP1;P1;durP2;ratioP2;P2;SDS_P1;SDS_P2;PMS_P1;PMS_P2;Temp;Humidity;BMP_temperature;BMP_pressure;BME280_temperature;BME280_humidity;BME280_pressure;Samples;Min_cycle;Max_cycle;Signal;HPM_P1;HPM_P2
2023/10/31 00:02:01;;;;;;;16.33;14.32;;;15.40;99.90;;;;;;4957013;29;20035;-71
2023/10/31 00:04:27;;;;;;;17.02;15.15;;;15.30;99.90;;;;;;4957650;28;20373;-72
2023/10/31 00:06:52;;;;;;;17.80;15.93;;;15.30;99.90;;;;;;4957105;28;20495;-72
2023/10/31 00:09:18;;;;;;;17.55;15.38;;;15.40;99.90;;;;;;4957114;28;20039;-71
2023/10/31 00:11:44;;;;;;;18.05;16.08;;;15.30;99.90;;;;;;4957851;29;20036;-72
2023/10/31 00:14:10;;;;;;;17.20;14.80;;;15.30;99.90;;;;;;4956266;29;20038;-72
2023/10/31 00:16:35;;;;;;;18.45;15.02;;;15.40;99.90;;;;;;4957200;29;20046;-73
2023/10/31 00:19:01;;;;;;;22.33;15.70;;;15.30;99.90;;;;;;4956497;28;20032;-72
2023/10/31 00:21:26;;;;;;;20.90;17.88;;;15.30;99.90;;;;;;4957048;29;20035;-72
2023/10/31 00:23:52;;;;;;;23.92;16.92;;;15.30;99.90;;;;;;4957054;29;20042;-73
2023/10/31 00:26:18;;;;;;;19.75;16.25;;;15.30;99.90;;;;;;4957222;28;20488;-72
2023/10/31 00:28:43;;;;;;;19.13;16.15;;;15.30;99.90;;;;;;4954109;28;20038;-73
2023/10/31 00:31:11;;;;;;;18.85;16.52;;;15.30;99.90;;;;;;4955845;28;20023;-72
2023/10/31 00:33:37;;;;;;;23.83;17.33;;;15.30;99.90;;;;;;4956808;28;20028;-72
2023/10/31 00:36:03;;;;;;;19.70;17.60;;;15.30;99.90;;;;;;4956304;28;20051;-72
2023/10/31 00:38:29;;;;;;;19.67;16.48;;;15.30;99.90;;;;;;4956676;28;20496;-72
2023/10/31 00:40:55;;;;;;;20.73;16.83;;;15.30;99.90;;;;;;4956936;29;20055;-72
2023/10/31 00:43:20;;;;;;;19.02;17.02;;;15.30;99.90;;;;;;4955126;29;20094;-72
2023/10/31 00:45:46;;;;;;;18.63;16.75;;;15.30;99.90;;;;;;4955981;28;20027;-72
2023/10/31 00:48:12;;;;;;;20.40;17.40;;;15.30;99.90;;;;;;4956738;29;20031;-72
2023/10/31 00:50:37;;;;;;;18.10;16.17;;;15.30;99.90;;;;;;4956774;29;20031;-72
2023/10/31 00:53:03;;;;;;;20.42;16.23;;;15.30;99.90;;;;;;4956597;29;20043;-72
2023/10/31 00:55:28;;;;;;;17.10;15.25;;;15.30;99.90;;;;;;4955053;29;20559;-72
2023/10/31 00:57:54;;;;;;;18.52;15.27;;;15.20;99.90;;;;;;4952346;28;20039;-72
2023/10/31 01:00:20;;;;;;;17.02;15.10;;;15.30;99.90;;;;;;4956430;28;20058;-72
2023/10/31 01:02:46;;;;;;;17.48;15.63;;;15.30;99.90;;;;;;4956241;28;20051;-72
2023/10/31 01:05:11;;;;;;;16.25;14.48;;;15.30;99.90;;;;;;4956728;28;20035;-73
2023/10/31 01:07:37;;;;;;;16.67;14.43;;;15.30;99.90;;;;;;4955814;28;20042;-72
2023/10/31 01:10:04;;;;;;;15.60;13.77;;;15.20;99.90;;;;;;4956275;29;20081;-72
2023/10/31 01:12:30;;;;;;;18.30;14.02;;;15.30;99.90;;;;;;4955805;28;20023;-72
2023/10/31 01:14:56;;;;;;;14.38;12.75;;;15.30;99.90;;;;;;4953107;28;20147;-72
2023/10/31 01:17:22;;;;;;;14.65;12.93;;;15.20;99.90;;;;;;4956059;28;20033;-72
2023/10/31 01:19:48;;;;;;;13.55;12.15;;;15.20;99.90;;;;;;4955778;28;20031;-71
2023/10/31 01:22:13;;;;;;;12.95;11.57;;;15.30;99.90;;;;;;4956170;29;20071;-72
2023/10/31 01:24:39;;;;;;;11.63;10.38;;;15.20;99.90;;;;;;4955430;28;20019;-72
2023/10/31 01:27:05;;;;;;;11.15;10.02;;;15.20;99.90;;;;;;4954365;28;20035;-72
2023/10/31 01:29:30;;;;;;;10.80;9.73;;;15.30;99.90;;;;;;4955686;28;20023;-72
2023/10/31 01:31:56;;;;;;;10.68;9.57;;;15.20;99.90;;;;;;4955326;28;20396;-73
2023/10/31 01:34:22;;;;;;;12.65;9.60;;;15.20;99.90;;;;;;4954850;28;20527;-72
2023/10/31 01:36:48;;;;;;;12.43;9.57;;;15.20;99.90;;;;;;4936578;29;20027;-72
2023/10/31 01:39:13;;;;;;;11.38;10.15;;;15.20;99.90;;;;;;4937094;29;20034;-73
2023/10/31 01:41:43;;;;;;;11.50;9.27;;;15.20;99.90;;;;;;4936745;29;20035;-72
2023/10/31 01:44:09;;;;;;;11.50;10.32;;;15.20;99.90;;;;;;4955708;28;20035;-72
2023/10/31 01:46:35;;;;;;;10.60;9.60;;;15.20;99.90;;;;;;4954917;28;20027;-72
2023/10/31 01:49:00;;;;;;;11.48;10.10;;;15.20;99.90;;;;;;4955672;28;20023;-72
2023/10/31 01:51:27;;;;;;;11.13;10.02;;;15.20;99.90;;;;;;4955611;28;20024;-72
2023/10/31 01:53:53;;;;;;;12.93;10.30;;;15.20;99.90;;;;;;4955199;28;20035;-72
2023/10/31 01:56:21;;;;;;;11.88;10.15;;;15.20;99.90;;;;;;4954564;28;20091;-72
2023/10/31 01:58:48;;;;;;;11.40;10.25;;;15.20;99.90;;;;;;4955651;28;20053;-72
2023/10/31 02:01:13;;;;;;;10.25;9.25;;;15.10;99.90;;;;;;4953248;28;20099;-72
2023/10/31 02:03:39;;;;;;;9.75;8.82;;;15.10;99.90;;;;;;4951680;28;20118;-72
2023/10/31 02:06:05;;;;;;;10.60;9.02;;;15.10;99.90;;;;;;4953016;28;20066;-72
2023/10/31 02:08:31;;;;;;;9.30;8.35;;;15.10;99.90;;;;;;4955071;29;20055;-72
2023/10/31 02:10:56;;;;;;;8.48;7.45;;;15.10;99.90;;;;;;4954122;28;20119;-72
2023/10/31 02:13:22;;;;;;;8.70;6.93;;;15.10;99.90;;;;;;4945814;28;20024;-71
2023/10/31 02:15:48;;;;;;;9.48;7.65;;;15.10;99.90;;;;;;4936106;29;20091;-72
2023/10/31 02:18:14;;;;;;;7.68;6.55;;;15.00;99.90;;;;;;4941041;29;20027;-72
2023/10/31 02:20:40;;;;;;;8.68;6.57;;;15.10;99.90;;;;;;4955358;28;20105;-71
2023/10/31 02:23:06;;;;;;;6.28;5.57;;;15.00;99.90;;;;;;4951887;28;20555;-72
2023/10/31 02:25:32;;;;;;;6.20;5.68;;;15.10;99.90;;;;;;4955177;29;20027;-72
2023/10/31 02:27:57;;;;;;;6.68;5.93;;;15.10;99.90;;;;;;4955178;29;20023;-72
2023/10/31 02:30:24;;;;;;;7.95;5.38;;;15.10;99.90;;;;;;4950978;28;20063;-72
2023/10/31 02:32:50;;;;;;;5.25;4.60;;;15.10;99.90;;;;;;4954404;29;20039;-72
2023/10/31 02:35:17;;;;;;;6.72;5.65;;;15.10;99.90;;;;;;4946668;28;20059;-71
2023/10/31 02:37:43;;;;;;;6.40;5.15;;;15.10;99.90;;;;;;4953187;29;20059;-71
2023/10/31 02:40:10;;;;;;;8.57;6.05;;;15.10;99.90;;;;;;4951694;28;20481;-71
2023/10/31 02:42:36;;;;;;;6.53;5.93;;;15.10;99.90;;;;;;4942109;28;20038;-72
2023/10/31 02:45:01;;;;;;;7.53;6.68;;;15.00;99.90;;;;;;4954135;28;20102;-72
2023/10/31 02:47:27;;;;;;;7.47;6.78;;;15.00;99.90;;;;;;4951889;28;20052;-71
2023/10/31 02:49:53;;;;;;;8.00;6.25;;;15.10;99.90;;;;;;4953936;28;20035;-72
2023/10/31 02:52:18;;;;;;;7.90;6.80;;;15.10;99.90;;;;;;4953367;28;20019;-71
2023/10/31 02:54:44;;;;;;;7.78;6.38;;;15.00;99.90;;;;;;4956261;28;20078;-72
2023/10/31 02:57:10;;;;;;;6.80;6.10;;;14.90;99.90;;;;;;4958789;29;20015;-71
2023/10/31 02:59:35;;;;;;;6.97;6.30;;;14.90;99.90;;;;;;4959048;29;20070;-71
2023/10/31 03:02:01;;;;;;;7.70;5.80;;;14.90;99.90;;;;;;4958221;28;20559;-72
2023/10/31 03:04:26;;;;;;;7.93;6.75;;;14.90;99.90;;;;;;4958770;28;20034;-72
2023/10/31 03:06:52;;;;;;;6.47;5.88;;;14.90;99.90;;;;;;4958925;28;20481;-73
2023/10/31 03:09:17;;;;;;;7.30;6.10;;;14.90;99.90;;;;;;4958376;28;20023;-72
2023/10/31 03:11:43;;;;;;;9.57;6.35;;;14.90;99.90;;;;;;4958794;28;20035;-72
2023/10/31 03:14:08;;;;;;;7.18;6.45;;;14.80;99.90;;;;;;4958355;28;20106;-72
2023/10/31 03:16:34;;;;;;;7.38;6.45;;;14.90;99.90;;;;;;4958558;28;20484;-72
2023/10/31 03:18:59;;;;;;;7.65;5.68;;;14.90;99.90;;;;;;4958438;28;20469;-71
2023/10/31 03:21:25;;;;;;;8.55;5.57;;;14.80;99.90;;;;;;4958491;28;20125;-72
2023/10/31 03:23:53;;;;;;;8.82;5.13;;;14.80;99.90;;;;;;4957856;28;20043;-71
2023/10/31 03:26:19;;;;;;;7.18;5.28;;;14.90;99.90;;;;;;4958431;28;20023;-72
2023/10/31 03:28:45;;;;;;;5.80;5.13;;;14.80;99.90;;;;;;4958501;28;20110;-72
2023/10/31 03:31:12;;;;;;;5.60;4.60;;;14.80;99.90;;;;;;4958256;28;20020;-72
2023/10/31 03:33:37;;;;;;;4.78;3.25;;;14.90;99.90;;;;;;4957798;28;20035;-72
2023/10/31 03:36:04;;;;;;;6.05;3.55;;;14.90;99.90;;;;;;4958197;28;20396;-72
2023/10/31 03:38:31;;;;;;;4.93;2.90;;;14.80;99.90;;;;;;4958190;28;20027;-71
2023/10/31 03:40:56;;;;;;;3.67;3.03;;;14.90;99.90;;;;;;4958123;28;20027;-71
2023/10/31 03:43:22;;;;;;;5.65;3.20;;;14.90;99.90;;;;;;4957862;28;20039;-71
2023/10/31 03:45:47;;;;;;;4.28;2.83;;;14.90;99.90;;;;;;4972978;28;20031;-72
2023/10/31 03:48:13;;;;;;;5.03;2.53;;;14.80;99.90;;;;;;4958377;28;20031;-71
2023/10/31 03:50:39;;;;;;;4.30;2.88;;;14.80;99.90;;;;;;4957593;28;20082;-72
2023/10/31 03:53:04;;;;;;;6.38;2.75;;;14.80;99.90;;;;;;4957698;28;20037;-71
2023/10/31 03:55:30;;;;;;;3.75;2.60;;;14.70;99.90;;;;;;4957965;28;20023;-71
2023/10/31 03:57:56;;;;;;;3.00;2.10;;;14.70;99.90;;;;;;4958059;28;20028;-72
2023/10/31 04:00:21;;;;;;;6.57;2.60;;;14.80;99.90;;;;;;4957762;28;20035;-71
2023/10/31 04:02:47;;;;;;;3.42;2.28;;;14.80;99.90;;;;;;4957566;28;20039;-71
2023/10/31 04:05:13;;;;;;;2.60;2.30;;;14.80;99.90;;;;;;4957424;28;20057;-71
2023/10/31 04:07:38;;;;;;;7.25;2.33;;;14.80;99.90;;;;;;4957553;28;20094;-71
2023/10/31 04:10:05;;;;;;;2.70;2.05;;;14.70;99.90;;;;;;4957654;28;20019;-71
2023/10/31 04:12:31;;;;;;;2.85;2.20;;;14.70;99.90;;;;;;4957461;28;20047;-71
2023/10/31 04:14:56;;;;;;;4.32;2.15;;;14.70;99.90;;;;;;4957529;28;20034;-72
2023/10/31 04:17:22;;;;;;;5.28;2.38;;;14.70;99.90;;;;;;4957515;28;20023;-71
2023/10/31 04:19:47;;;;;;;2.65;2.45;;;14.70;99.90;;;;;;4957208;28;20027;-71
2023/10/31 04:22:13;;;;;;;3.17;2.10;;;14.60;99.90;;;;;;4957096;28;20026;-71
2023/10/31 04:24:38;;;;;;;2.47;1.88;;;14.70;99.90;;;;;;4957153;28;20495;-71
2023/10/31 04:27:04;;;;;;;2.88;2.17;;;14.70;99.90;;;;;;4957468;28;20015;-71
2023/10/31 04:29:30;;;;;;;5.25;1.95;;;14.70;99.90;;;;;;4957329;28;20473;-72
2023/10/31 04:31:55;;;;;;;6.15;2.15;;;14.70;99.90;;;;;;4957041;28;20046;-71
2023/10/31 04:34:21;;;;;;;4.05;1.80;;;14.60;99.90;;;;;;4956538;28;20091;-71
2023/10/31 04:36:46;;;;;;;3.55;1.50;;;14.60;99.90;;;;;;4957003;28;20039;-71
2023/10/31 04:39:12;;;;;;;2.60;1.38;;;14.60;99.90;;;;;;4957168;28;20090;-72
2023/10/31 04:41:37;;;;;;;2.10;1.60;;;14.70;99.90;;;;;;4956784;28;20019;-71
2023/10/31 04:44:03;;;;;;;3.38;1.90;;;14.60;99.90;;;;;;4956716;28;20433;-71
2023/10/31 04:46:28;;;;;;;2.78;1.70;;;14.60;99.90;;;;;;4957207;28;20050;-71
2023/10/31 04:48:54;;;;;;;4.53;1.98;;;14.60;99.90;;;;;;4956902;28;20086;-71
2023/10/31 04:51:20;;;;;;;2.28;1.65;;;14.60;99.90;;;;;;4956846;28;20126;-71
2023/10/31 04:53:45;;;;;;;3.88;1.88;;;14.60;99.90;;;;;;4956006;28;20031;-72
2023/10/31 04:56:14;;;;;;;2.78;1.90;;;14.60;99.90;;;;;;4956524;28;20031;-71
2023/10/31 04:58:43;;;;;;;3.65;1.58;;;14.60;99.90;;;;;;4955241;28;20107;-71
2023/10/31 05:01:10;;;;;;;4.28;2.22;;;14.60;99.90;;;;;;4955393;28;20499;-74
2023/10/31 05:03:36;;;;;;;3.60;2.22;;;14.60;99.90;;;;;;4956539;28;20043;-73
2023/10/31 05:06:03;;;;;;;3.97;2.47;;;14.60;99.90;;;;;;4956503;28;20037;-72
2023/10/31 05:08:29;;;;;;;2.92;2.15;;;14.60;99.90;;;;;;4971316;28;20393;-70
2023/10/31 05:10:54;;;;;;;3.13;2.25;;;14.60;99.90;;;;;;4956444;28;20036;-73
2023/10/31 05:13:20;;;;;;;3.80;2.25;;;14.60;99.90;;;;;;4956490;28;20035;-71
2023/10/31 05:15:45;;;;;;;3.55;2.15;;;14.60;99.90;;;;;;4956552;28;20020;-71
2023/10/31 05:18:11;;;;;;;2.53;2.22;;;14.60;99.90;;;;;;4955613;28;20114;-70
2023/10/31 05:20:36;;;;;;;4.88;2.38;;;14.60;99.90;;;;;;4971065;28;20036;-73
2023/10/31 05:23:02;;;;;;;2.78;2.25;;;14.60;99.90;;;;;;4956016;28;20035;-72
2023/10/31 05:25:28;;;;;;;2.47;2.10;;;14.50;99.90;;;;;;4971245;28;20032;-72
2023/10/31 05:27:54;;;;;;;3.53;2.20;;;14.50;99.90;;;;;;4956229;28;20035;-73
2023/10/31 05:30:19;;;;;;;3.88;2.88;;;14.50;99.90;;;;;;4956076;28;20082;-71
2023/10/31 05:32:45;;;;;;;3.13;2.78;;;14.50;99.90;;;;;;4955769;28;20031;-72
2023/10/31 05:35:11;;;;;;;6.72;2.88;;;14.50;99.90;;;;;;4956178;28;20035;-73
2023/10/31 05:37:36;;;;;;;4.13;3.13;;;14.50;99.90;;;;;;4956220;28;20110;-72
2023/10/31 05:40:02;;;;;;;3.38;3.08;;;14.50;99.90;;;;;;4955562;28;20035;-72
2023/10/31 05:42:28;;;;;;;4.35;2.92;;;14.40;99.90;;;;;;4955571;28;20611;-73
2023/10/31 05:44:54;;;;;;;3.40;3.10;;;14.50;99.90;;;;;;4956126;28;20027;-72
2023/10/31 05:47:20;;;;;;;4.10;3.10;;;14.40;99.90;;;;;;4955562;28;20049;-72
2023/10/31 05:49:46;;;;;;;3.30;3.00;;;14.40;99.90;;;;;;4970632;28;20484;-72
2023/10/31 05:52:12;;;;;;;3.80;3.15;;;14.40;99.90;;;;;;4955531;28;20540;-72
2023/10/31 05:54:37;;;;;;;4.35;3.60;;;14.40;99.90;;;;;;4955938;28;20038;-72
2023/10/31 05:57:03;;;;;;;3.40;3.10;;;14.40;99.90;;;;;;4955694;28;20536;-72
2023/10/31 05:59:28;;;;;;;4.68;4.25;;;14.40;99.90;;;;;;4955795;28;20535;-72
2023/10/31 06:01:54;;;;;;;4.38;3.97;;;14.40;99.90;;;;;;4954868;28;20046;-73
2023/10/31 06:04:19;;;;;;;4.85;3.97;;;14.30;99.90;;;;;;4955541;28;20087;-73
2023/10/31 06:06:45;;;;;;;5.57;4.35;;;14.30;99.90;;;;;;4955560;28;20027;-72
2023/10/31 06:09:10;;;;;;;70.10;12.40;;;14.40;99.90;;;;;;4954948;28;20082;-71
2023/10/31 06:11:36;;;;;;;3.35;1.85;;;14.30;99.90;;;;;;4955546;28;20388;-73
2023/10/31 06:14:02;;;;;;;5.82;4.22;;;14.40;99.90;;;;;;4955699;28;20027;-72
2023/10/31 06:16:27;;;;;;;5.13;4.72;;;14.40;99.90;;;;;;4955199;28;20373;-73
2023/10/31 06:18:53;;;;;;;6.80;4.70;;;14.40;99.90;;;;;;4955221;28;20508;-73
2023/10/31 06:21:18;;;;;;;4.70;4.30;;;14.40;99.90;;;;;;4955335;28;20027;-71
2023/10/31 06:23:46;;;;;;;4.13;3.13;;;14.40;99.90;;;;;;4955211;28;20047;-73
2023/10/31 06:26:11;;;;;;;5.57;3.42;;;14.50;99.90;;;;;;4955372;28;20028;-73
2023/10/31 06:28:37;;;;;;;6.82;6.15;;;14.50;99.90;;;;;;4953955;28;20045;-73
2023/10/31 06:31:03;;;;;;;2.28;2.08;;;14.50;99.90;;;;;;4954984;28;20027;-72
2023/10/31 06:33:29;;;;;;;6.65;5.72;;;14.50;99.90;;;;;;4955077;28;20038;-73
2023/10/31 06:35:54;;;;;;;3.20;2.78;;;14.50;99.90;;;;;;4955305;28;20374;-73
2023/10/31 06:38:20;;;;;;;3.28;2.58;;;14.50;99.90;;;;;;4955018;28;20019;-73
2023/10/31 06:40:46;;;;;;;7.10;5.88;;;14.50;99.90;;;;;;4954535;28;20078;-73
2023/10/31 06:43:11;;;;;;;4.88;4.38;;;14.50;99.90;;;;;;4954880;28;20027;-72
2023/10/31 06:45:37;;;;;;;6.13;5.63;;;14.50;99.90;;;;;;4954963;28;20557;-73
2023/10/31 06:48:03;;;;;;;6.68;6.07;;;14.50;99.90;;;;;;4955011;28;20473;-72
2023/10/31 06:50:28;;;;;;;6.03;5.53;;;14.50;99.90;;;;;;4954890;28;20027;-72
2023/10/31 06:52:54;;;;;;;4.82;3.17;;;14.40;99.90;;;;;;4954759;28;20037;-73
2023/10/31 06:55:20;;;;;;;7.35;5.47;;;14.40;99.90;;;;;;4954949;28;20025;-71
2023/10/31 06:57:45;;;;;;;7.15;6.35;;;14.40;99.90;;;;;;4955211;28;20036;-73
2023/10/31 07:00:12;;;;;;;6.88;6.18;;;14.40;99.90;;;;;;4954317;28;20023;-73
2023/10/31 07:02:38;;;;;;;7.22;6.32;;;14.40;99.90;;;;;;4954818;28;20117;-73
2023/10/31 07:05:04;;;;;;;10.27;7.00;;;14.40;99.90;;;;;;4947644;28;20130;-73
2023/10/31 07:07:29;;;;;;;8.23;6.05;;;14.40;99.90;;;;;;4950394;28;20030;-71
2023/10/31 07:09:55;;;;;;;9.48;7.28;;;14.40;99.90;;;;;;4952920;28;20036;-70
2023/10/31 07:12:21;;;;;;;8.02;6.97;;;14.50;99.90;;;;;;4954763;28;20445;-71
2023/10/31 07:14:47;;;;;;;8.82;7.57;;;14.60;99.90;;;;;;4956681;28;20031;-72
2023/10/31 07:17:12;;;;;;;8.30;7.50;;;14.60;99.90;;;;;;4954530;28;20024;-69
2023/10/31 07:19:38;;;;;;;9.25;8.45;;;14.70;99.90;;;;;;4936333;28;20040;-71
2023/10/31 07:22:03;;;;;;;11.38;9.10;;;14.70;99.90;;;;;;4935602;29;20031;-72
2023/10/31 07:24:29;;;;;;;10.43;9.43;;;14.70;99.90;;;;;;4939011;28;20026;-72
2023/10/31 07:26:55;;;;;;;11.32;10.20;;;14.60;99.90;;;;;;4953993;29;20488;-70
2023/10/31 07:29:20;;;;;;;5.88;5.07;;;14.60;99.90;;;;;;4953756;29;20460;-71
2023/10/31 07:31:46;;;;;;;6.47;5.72;;;14.70;99.90;;;;;;4946293;28;20034;-71
2023/10/31 07:34:12;;;;;;;5.38;3.15;;;14.80;99.90;;;;;;4950889;29;20110;-70
2023/10/31 07:36:39;;;;;;;5.75;4.57;;;14.90;99.90;;;;;;4940579;28;21509;-70
2023/10/31 07:39:05;;;;;;;4.97;3.70;;;14.90;99.90;;;;;;4950751;28;20489;-71
2023/10/31 07:41:30;;;;;;;7.60;6.47;;;14.90;99.90;;;;;;4951425;28;20110;-70
2023/10/31 07:43:56;;;;;;;9.85;6.90;;;14.90;99.90;;;;;;4955522;28;20082;-70
2023/10/31 07:46:23;;;;;;;7.78;5.15;;;14.90;99.90;;;;;;4950674;28;20028;-72
2023/10/31 07:48:49;;;;;;;9.23;8.30;;;14.90;99.90;;;;;;4947435;28;20038;-70
2023/10/31 07:51:14;;;;;;;9.23;7.32;;;14.80;99.90;;;;;;4940732;28;20071;-69
2023/10/31 07:53:41;;;;;;;8.68;7.78;;;14.90;99.90;;;;;;4954330;28;20035;-69
2023/10/31 07:56:18;;;;;;;10.32;7.22;;;14.80;99.90;;;;;;4945945;28;20061;-72
2023/10/31 07:58:44;;;;;;;8.43;7.55;;;14.80;99.90;;;;;;4945538;28;20042;-67
2023/10/31 08:01:10;;;;;;;10.23;9.20;;;14.80;99.90;;;;;;4946145;28;20102;-65
2023/10/31 08:03:37;;;;;;;8.82;7.93;;;14.70;99.90;;;;;;4960224;28;20039;-70
2023/10/31 08:06:04;;;;;;;12.52;8.43;;;14.70;99.90;;;;;;4950702;28;20045;-71
2023/10/31 08:08:29;;;;;;;10.38;7.53;;;14.80;99.90;;;;;;4956903;28;20055;-68
2023/10/31 08:10:57;;;;;;;10.52;8.75;;;14.70;99.90;;;;;;4946959;28;20070;-72
2023/10/31 08:13:22;;;;;;;12.02;8.25;;;14.70;99.90;;;;;;4944977;28;20030;-70
2023/10/31 08:15:48;;;;;;;11.95;10.63;;;14.70;99.90;;;;;;4951686;28;20042;-72
2023/10/31 08:18:13;;;;;;;9.90;8.57;;;14.70;99.90;;;;;;4953594;28;20047;-73
2023/10/31 08:20:39;;;;;;;6.80;5.55;;;14.80;99.90;;;;;;4948777;28;20423;-72
2023/10/31 08:23:04;;;;;;;12.98;11.63;;;14.80;99.90;;;;;;4954674;28;20035;-72
2023/10/31 08:25:30;;;;;;;14.32;10.68;;;14.80;99.90;;;;;;4957775;28;20420;-71
2023/10/31 08:27:56;;;;;;;11.30;10.02;;;14.70;99.90;;;;;;4955372;29;20031;-72
2023/10/31 08:30:22;;;;;;;13.32;11.93;;;14.70;99.90;;;;;;4953909;28;20020;-70
2023/10/31 08:32:48;;;;;;;12.68;11.57;;;14.70;99.90;;;;;;4954799;28;20046;-68
2023/10/31 08:35:13;;;;;;;13.40;12.02;;;14.70;99.90;;;;;;4958502;28;20031;-71
2023/10/31 08:37:39;;;;;;;12.70;11.35;;;14.70;99.90;;;;;;4954584;29;20034;-72
2023/10/31 08:40:05;;;;;;;12.68;10.52;;;14.70;99.90;;;;;;4953501;29;20027;-68
2023/10/31 08:42:31;;;;;;;13.43;12.07;;;14.70;99.90;;;;;;4957249;28;20094;-73
2023/10/31 08:44:56;;;;;;;11.73;10.52;;;14.70;99.90;;;;;;4953705;28;20106;-67
2023/10/31 08:47:23;;;;;;;12.55;11.25;;;14.70;99.90;;;;;;4953528;28;20067;-71
2023/10/31 08:49:48;;;;;;;9.38;8.38;;;14.70;99.90;;;;;;4954948;28;20031;-71
2023/10/31 08:52:14;;;;;;;14.27;10.93;;;14.70;99.90;;;;;;4953271;28;20023;-70
2023/10/31 08:54:40;;;;;;;17.02;13.05;;;14.80;99.90;;;;;;4950945;28;20023;-70
2023/10/31 08:57:05;;;;;;;14.07;11.73;;;14.80;99.90;;;;;;4952600;28;20501;-67
2023/10/31 08:59:31;;;;;;;14.68;13.00;;;14.80;99.90;;;;;;4954668;28;20058;-69
2023/10/31 09:01:56;;;;;;;17.00;13.63;;;14.90;99.90;;;;;;4949615;28;20063;-68
2023/10/31 09:04:22;;;;;;;14.60;11.52;;;14.90;99.90;;;;;;4953087;28;20032;-69
2023/10/31 09:06:47;;;;;;;13.82;12.00;;;14.90;99.90;;;;;;4948385;28;20027;-68
2023/10/31 09:09:13;;;;;;;9.23;8.20;;;14.90;99.90;;;;;;4952871;28;20078;-69
2023/10/31 09:11:39;;;;;;;13.85;12.15;;;14.90;99.90;;;;;;4954108;28;20019;-71
2023/10/31 09:14:04;;;;;;;17.73;13.02;;;15.00;99.90;;;;;;4948225;28;20739;-69
2023/10/31 09:16:30;;;;;;;16.67;12.70;;;15.00;99.90;;;;;;4948819;28;20031;-67
2023/10/31 09:18:55;;;;;;;14.95;13.02;;;15.00;99.90;;;;;;4952020;28;20033;-70
2023/10/31 09:21:21;;;;;;;14.50;11.35;;;15.00;99.90;;;;;;4953106;28;20031;-71
2023/10/31 09:23:47;;;;;;;10.48;9.43;;;15.00;99.90;;;;;;4953258;28;20130;-70
2023/10/31 09:26:13;;;;;;;12.05;10.85;;;15.00;99.90;;;;;;4950624;28;20023;-69
2023/10/31 09:28:40;;;;;;;15.48;12.13;;;15.00;99.90;;;;;;4951362;28;20055;-70
2023/10/31 09:31:05;;;;;;;12.05;7.53;;;15.00;99.90;;;;;;4953730;28;20045;-70
2023/10/31 09:33:31;;;;;;;10.32;9.20;;;15.00;99.90;;;;;;4950309;28;20579;-70
2023/10/31 09:35:57;;;;;;;10.73;9.30;;;15.10;99.90;;;;;;4953334;28;20484;-69
2023/10/31 09:38:23;;;;;;;12.68;9.18;;;15.10;99.90;;;;;;4954578;28;20055;-70
2023/10/31 09:40:49;;;;;;;12.05;8.35;;;15.10;99.90;;;;;;4954251;28;20106;-68
2023/10/31 09:43:15;;;;;;;13.48;10.30;;;15.10;99.90;;;;;;4942298;29;20036;-71
2023/10/31 09:45:41;;;;;;;10.30;9.23;;;15.20;99.90;;;;;;4954033;29;20023;-70
2023/10/31 09:48:07;;;;;;;10.45;9.38;;;15.20;99.90;;;;;;4951503;28;20031;-70
2023/10/31 09:50:33;;;;;;;10.65;9.45;;;15.20;99.90;;;;;;4954201;29;20058;-69
2023/10/31 09:53:00;;;;;;;10.88;8.30;;;15.20;99.90;;;;;;4951861;28;20032;-70
2023/10/31 09:55:26;;;;;;;10.32;9.10;;;15.20;99.90;;;;;;4950772;28;20119;-72
2023/10/31 09:57:51;;;;;;;11.85;9.10;;;15.20;99.90;;;;;;4950340;28;20038;-70
2023/10/31 10:00:18;;;;;;;9.68;7.35;;;15.20;99.90;;;;;;4952761;29;20031;-69
2023/10/31 10:02:43;;;;;;;13.00;8.55;;;15.20;99.90;;;;;;4946214;28;20039;-70
2023/10/31 10:05:09;;;;;;;14.07;8.82;;;15.20;99.90;;;;;;4950936;28;20035;-70
2023/10/31 10:07:35;;;;;;;10.18;8.70;;;15.20;99.90;;;;;;4947740;28;20091;-71
2023/10/31 10:10:01;;;;;;;14.07;8.27;;;15.20;99.90;;;;;;4950576;28;20031;-72
2023/10/31 10:12:27;;;;;;;12.95;8.60;;;15.30;99.90;;;;;;4952463;28;20038;-69
2023/10/31 10:14:53;;;;;;;8.35;7.07;;;15.30;99.90;;;;;;4953319;29;20027;-70
2023/10/31 10:17:22;;;;;;;10.10;7.10;;;15.30;99.90;;;;;;4951411;28;20034;-71
2023/10/31 10:19:53;;;;;;;7.65;6.50;;;15.30;99.90;;;;;;4949605;28;20392;-69
2023/10/31 10:22:20;;;;;;;6.82;5.85;;;15.30;99.90;;;;;;4950128;28;20026;-70
2023/10/31 10:24:46;;;;;;;8.70;6.60;;;15.30;99.90;;;;;;4951723;29;20039;-69
2023/10/31 10:27:11;;;;;;;9.65;5.80;;;15.30;99.90;;;;;;4955032;28;20114;-68
2023/10/31 10:29:38;;;;;;;9.57;5.47;;;15.30;99.90;;;;;;4954524;28;20098;-69
2023/10/31 10:32:10;;;;;;;10.70;5.47;;;15.30;99.90;;;;;;4954104;28;20035;-68
2023/10/31 10:34:36;;;;;;;7.40;5.28;;;15.30;99.90;;;;;;4954987;28;20038;-71
2023/10/31 10:37:04;;;;;;;11.13;4.75;;;15.40;99.90;;;;;;4952476;28;20027;-69
2023/10/31 10:39:32;;;;;;;10.80;5.03;;;15.40;99.90;;;;;;4952210;29;20113;-72
2023/10/31 10:42:01;;;;;;;7.90;4.65;;;15.40;99.90;;;;;;4954746;28;20030;-71
2023/10/31 10:44:35;;;;;;;9.55;4.78;;;15.40;99.90;;;;;;4953849;28;20508;-71
2023/10/31 10:47:06;;;;;;;9.40;4.50;;;15.40;99.90;;;;;;4947821;28;20036;-72
2023/10/31 10:49:35;;;;;;;6.90;4.63;;;15.40;99.90;;;;;;4953644;28;20026;-71
2023/10/31 10:52:26;;;;;;;5.80;4.65;;;15.40;99.90;;;;;;4954605;28;20023;-70
2023/10/31 10:54:56;;;;;;;6.32;4.55;;;15.40;99.90;;;;;;4952105;29;20551;-71
2023/10/31 10:57:42;;;;;;;6.82;4.18;;;15.40;99.90;;;;;;4948220;28;20023;-70
2023/10/31 11:00:12;;;;;;;5.15;3.38;;;15.40;99.90;;;;;;4952405;28;20035;-68
2023/10/31 11:02:39;;;;;;;5.13;3.65;;;15.40;99.90;;;;;;4956811;28;20038;-68
2023/10/31 11:05:08;;;;;;;9.60;4.45;;;15.40;99.90;;;;;;4969367;28;20031;-70
2023/10/31 11:07:38;;;;;;;6.63;3.58;;;15.40;99.90;;;;;;4954502;28;20065;-71
2023/10/31 11:10:04;;;;;;;7.50;3.97;;;15.40;99.90;;;;;;4955878;28;20110;-68
2023/10/31 11:12:31;;;;;;;14.15;4.88;;;15.50;99.90;;;;;;4952747;28;20031;-69
2023/10/31 11:15:02;;;;;;;7.32;4.10;;;15.50;99.90;;;;;;4954655;28;20293;-71
2023/10/31 11:17:34;;;;;;;4.25;3.85;;;15.50;99.90;;;;;;4956328;29;20110;-69
2023/10/31 11:20:00;;;;;;;7.60;3.65;;;15.50;99.90;;;;;;4957442;28;20050;-70
2023/10/31 11:22:40;;;;;;;5.45;3.42;;;15.50;99.90;;;;;;4971569;28;20122;-70
2023/10/31 11:25:08;;;;;;;8.85;3.50;;;15.60;99.90;;;;;;4955307;28;20496;-69
2023/10/31 11:27:37;;;;;;;8.52;3.95;;;15.60;99.90;;;;;;4956856;28;20030;-72
2023/10/31 11:30:27;;;;;;;8.80;4.25;;;15.60;99.90;;;;;;4957405;28;20388;-72
2023/10/31 11:32:54;;;;;;;8.93;3.90;;;15.60;99.90;;;;;;4950539;29;20038;-70
2023/10/31 11:35:23;;;;;;;7.85;3.92;;;15.60;99.90;;;;;;4953284;28;20093;-70
2023/10/31 11:37:50;;;;;;;8.48;4.47;;;15.60;99.90;;;;;;4955994;28;20392;-71
2023/10/31 11:40:22;;;;;;;9.00;4.45;;;15.70;99.90;;;;;;4957171;28;20043;-70
2023/10/31 11:42:50;;;;;;;7.95;4.57;;;15.70;99.90;;;;;;4957973;28;20043;-71
2023/10/31 11:45:27;;;;;;;9.65;4.97;;;15.70;99.90;;;;;;4963784;28;20019;-71
2023/10/31 11:47:53;;;;;;;9.98;5.15;;;15.60;99.90;;;;;;4953210;28;20032;-72
2023/10/31 11:50:18;;;;;;;9.07;4.93;;;15.60;99.90;;;;;;4957166;28;20087;-72
2023/10/31 11:52:44;;;;;;;9.88;5.53;;;15.60;99.90;;;;;;4957133;28;20388;-72
2023/10/31 11:55:11;;;;;;;12.73;6.25;;;15.60;99.90;;;;;;4956975;28;20030;-71
2023/10/31 11:57:40;;;;;;;11.25;7.03;;;15.60;99.90;;;;;;4954001;28;20032;-69
2023/10/31 12:00:10;;;;;;;10.48;7.47;;;15.60;99.90;;;;;;4936199;29;20078;-70
2023/10/31 12:02:35;;;;;;;11.77;6.97;;;15.60;99.90;;;;;;4941983;28;20027;-71
2023/10/31 12:05:12;;;;;;;8.75;5.13;;;15.60;99.90;;;;;;4951436;28;20030;-72
2023/10/31 12:07:44;;;;;;;8.40;6.00;;;15.60;99.90;;;;;;4954030;28;20020;-71
2023/10/31 12:10:10;;;;;;;8.68;3.55;;;15.70;99.90;;;;;;4955314;28;20036;-70
2023/10/31 12:12:36;;;;;;;10.60;4.30;;;15.70;99.90;;;;;;4952748;28;20499;-68
2023/10/31 12:15:08;;;;;;;11.82;5.38;;;15.70;99.90;;;;;;4956348;28;20034;-69
2023/10/31 12:17:35;;;;;;;10.75;5.57;;;15.70;99.90;;;;;;4950629;28;20061;-70
2023/10/31 12:20:07;;;;;;;14.43;6.45;;;15.70;99.90;;;;;;4950451;28;20073;-70
2023/10/31 12:22:36;;;;;;;13.18;6.30;;;15.70;99.90;;;;;;4948990;28;20031;-71
2023/10/31 12:25:03;;;;;;;14.55;7.40;;;15.70;99.90;;;;;;4950737;28;20031;-70
2023/10/31 12:27:50;;;;;;;11.77;7.05;;;15.80;99.90;;;;;;4949952;28;20096;-69
2023/10/31 12:30:20;;;;;;;9.77;6.60;;;15.70;99.90;;;;;;4948725;28;20028;-71
2023/10/31 12:32:54;;;;;;;11.32;7.03;;;15.70;99.90;;;;;;4952766;28;20043;-68
2023/10/31 12:35:21;;;;;;;9.82;7.20;;;15.70;99.90;;;;;;4967433;28;20043;-68
2023/10/31 12:37:49;;;;;;;10.70;7.75;;;15.70;99.90;;;;;;4954505;28;20063;-68